createdAt,value
2018-11-26T00:01:50.240Z,22.73
2018-11-26T00:04:16.275Z,22.20
2018-11-26T00:06:42.298Z,21.77
2018-11-26T00:09:08.340Z,23.10
2018-11-26T00:11:34.359Z,23.87
2018-11-26T00:14:01.415Z,23.00
2018-11-26T00:16:27.433Z,21.83
2018-11-26T00:18:53.471Z,22.07
2018-11-26T00:21:19.500Z,22.73
2018-11-26T00:23:45.541Z,23.83
2018-11-26T00:26:12.301Z,20.40
2018-11-26T00:28:38.331Z,21.20
2018-11-26T00:31:04.351Z,20.40
2018-11-26T00:33:30.368Z,20.40
2018-11-26T00:35:56.376Z,18.43
2018-11-26T00:38:22.415Z,21.03
2018-11-26T00:40:48.448Z,21.50
2018-11-26T00:43:14.436Z,20.90
2018-11-26T00:45:41.481Z,19.43
2018-11-26T00:48:07.501Z,19.90
2018-11-26T00:50:34.278Z,21.37
2018-11-26T00:53:00.318Z,19.50
2018-11-26T00:55:26.606Z,19.73
2018-11-26T00:57:53.372Z,20.93
2018-11-26T01:00:19.412Z,23.13
2018-11-26T01:02:45.456Z,21.50
2018-11-26T01:05:11.489Z,21.83
2018-11-26T01:07:38.543Z,22.20
2018-11-26T01:10:04.583Z,20.47
2018-11-26T01:12:30.609Z,22.17
2018-11-26T01:14:56.637Z,21.80
2018-11-26T01:17:22.668Z,20.17
2018-11-26T01:19:48.719Z,20.80
2018-11-26T01:22:14.745Z,22.60
2018-11-26T01:24:40.797Z,20.73
2018-11-26T01:27:06.836Z,20.83
2018-11-26T01:29:32.891Z,20.20
2018-11-26T01:31:58.929Z,21.27
2018-11-26T01:34:24.961Z,23.50
2018-11-26T01:36:50.974Z,21.17
2018-11-26T01:39:17.020Z,20.00
2018-11-26T01:41:43.041Z,20.77
2018-11-26T01:44:09.071Z,22.33
2018-11-26T01:46:35.097Z,21.00
2018-11-26T01:49:01.119Z,20.67
2018-11-26T01:51:27.134Z,20.20
2018-11-26T01:53:53.190Z,21.13
2018-11-26T01:56:19.195Z,23.97
2018-11-26T01:58:45.230Z,21.53
2018-11-26T02:01:11.272Z,22.97
2018-11-26T02:03:37.274Z,20.00
2018-11-26T02:06:03.339Z,19.40
2018-11-26T02:08:39.358Z,21.50
2018-11-26T02:11:05.354Z,21.73
2018-11-26T02:13:31.393Z,24.07
2018-11-26T02:15:57.412Z,21.33
2018-11-26T02:18:23.481Z,22.07
2018-11-26T02:20:51.550Z,20.40
2018-11-26T02:23:17.574Z,20.13
2018-11-26T02:25:43.622Z,20.33
2018-11-26T02:28:10.373Z,22.90
2018-11-26T02:30:36.415Z,21.37
2018-11-26T02:33:02.458Z,20.50
2018-11-26T02:35:28.475Z,23.07
2018-11-26T02:37:54.735Z,21.77
2018-11-26T02:40:20.768Z,20.80
2018-11-26T02:42:46.764Z,20.43
2018-11-26T02:45:12.769Z,19.13
2018-11-26T02:47:38.788Z,21.20
2018-11-26T02:50:04.898Z,20.17
2018-11-26T02:52:30.930Z,22.63
2018-11-26T02:54:56.944Z,20.43
2018-11-26T02:57:23.680Z,20.80
2018-11-26T02:59:49.690Z,22.77
2018-11-26T03:02:16.473Z,21.83
2018-11-26T03:04:42.486Z,21.20
2018-11-26T03:07:09.242Z,21.77
2018-11-26T03:09:35.254Z,21.47
2018-11-26T03:12:02.392Z,21.47
2018-11-26T03:14:28.413Z,21.50
2018-11-26T03:16:54.437Z,19.00
2018-11-26T03:19:20.446Z,19.67
2018-11-26T03:21:46.456Z,21.57
2018-11-26T03:24:12.502Z,21.07
2018-11-26T03:26:39.289Z,20.93
2018-11-26T03:29:05.350Z,21.97
2018-11-26T03:31:31.388Z,21.23
2018-11-26T03:33:57.489Z,21.23
2018-11-26T03:36:23.529Z,21.50
2018-11-26T03:38:49.576Z,19.90
2018-11-26T03:41:15.594Z,22.73
2018-11-26T03:43:41.577Z,19.87
2018-11-26T03:46:07.567Z,21.40
2018-11-26T03:48:33.553Z,20.17
2018-11-26T03:50:59.553Z,21.10
2018-11-26T03:53:25.545Z,21.60
2018-11-26T03:55:51.563Z,21.60
2018-11-26T03:58:17.593Z,21.23
2018-11-26T04:00:43.622Z,22.80
2018-11-26T04:03:09.626Z,23.73
2018-11-26T04:05:35.621Z,22.20
2018-11-26T04:08:02.378Z,23.83
2018-11-26T04:10:29.122Z,21.73
2018-11-26T04:12:55.110Z,20.53
2018-11-26T04:15:21.111Z,20.13
2018-11-26T04:17:47.126Z,21.50
2018-11-26T04:20:13.146Z,20.60
2018-11-26T04:22:39.174Z,20.50
2018-11-26T04:25:05.173Z,20.17
2018-11-26T04:27:31.160Z,18.80
2018-11-26T04:29:57.142Z,20.40
2018-11-26T04:32:23.134Z,20.47
2018-11-26T04:34:49.188Z,21.90
2018-11-26T04:37:15.177Z,21.67
2018-11-26T04:39:41.897Z,19.67
2018-11-26T04:42:08.013Z,19.63
2018-11-26T04:44:33.998Z,23.00
2018-11-26T04:46:59.974Z,19.87
2018-11-26T04:49:25.966Z,20.70
2018-11-26T04:51:51.939Z,19.80
2018-11-26T04:54:17.923Z,21.97
2018-11-26T04:56:43.920Z,20.50
2018-11-26T04:59:09.913Z,22.17
2018-11-26T05:01:36.719Z,22.30
2018-11-26T05:04:02.716Z,22.80
2018-11-26T05:06:28.705Z,22.37
2018-11-26T05:08:54.721Z,23.00
2018-11-26T05:11:20.746Z,22.07
2018-11-26T05:13:46.717Z,21.53
2018-11-26T05:16:12.689Z,23.87
2018-11-26T05:18:38.684Z,21.70
2018-11-26T05:21:04.661Z,22.27
2018-11-26T05:23:30.673Z,25.17
2018-11-26T05:25:56.678Z,23.53
2018-11-26T05:28:22.669Z,21.90
2018-11-26T05:30:48.641Z,24.47
2018-11-26T05:33:14.637Z,26.10
2018-11-26T05:35:41.362Z,25.23
2018-11-26T05:38:07.342Z,26.00
2018-11-26T05:40:33.336Z,25.77
2018-11-26T05:42:59.385Z,24.87
2018-11-26T05:45:25.376Z,31.90
2018-11-26T05:47:52.102Z,30.30
2018-11-26T05:50:18.107Z,29.87
2018-11-26T05:52:44.100Z,29.30
2018-11-26T05:55:10.073Z,28.43
2018-11-26T05:57:36.190Z,27.83
2018-11-26T06:00:02.327Z,27.23
2018-11-26T06:02:28.311Z,31.70
2018-11-26T06:04:54.310Z,40.60
2018-11-26T06:07:20.301Z,30.97
2018-11-26T06:09:47.035Z,28.27
2018-11-26T06:12:13.795Z,27.33
2018-11-26T06:14:46.737Z,28.03
2018-11-26T06:17:12.734Z,25.40
2018-11-26T06:19:38.705Z,28.57
2018-11-26T06:22:04.677Z,27.03
2018-11-26T06:24:30.689Z,26.30
2018-11-26T06:26:56.674Z,28.27
2018-11-26T06:29:22.665Z,30.10
2018-11-26T06:32:03.631Z,31.40
2018-11-26T06:34:29.656Z,30.87
2018-11-26T06:36:55.673Z,27.73
2018-11-26T06:39:21.653Z,30.40
2018-11-26T06:41:48.409Z,30.57
2018-11-26T06:44:14.379Z,32.20
2018-11-26T06:46:40.357Z,35.10
2018-11-26T06:49:06.342Z,31.87
2018-11-26T06:51:32.317Z,29.33
2018-11-26T06:53:58.342Z,26.47
2018-11-26T06:56:24.314Z,27.40
2018-11-26T06:58:50.289Z,29.43
2018-11-26T07:01:16.301Z,27.20
2018-11-26T07:03:42.293Z,28.30
2018-11-26T07:06:09.032Z,25.57
2018-11-26T07:08:35.793Z,29.57
2018-11-26T07:11:01.793Z,38.60
2018-11-26T07:13:27.778Z,29.60
2018-11-26T07:15:53.974Z,31.40
2018-11-26T07:18:19.945Z,30.03
2018-11-26T07:20:45.924Z,27.37
2018-11-26T07:23:11.942Z,24.77
2018-11-26T07:25:37.929Z,29.40
2018-11-26T07:28:03.911Z,26.87
2018-11-26T07:30:29.894Z,27.40
2018-11-26T07:32:56.674Z,26.30
2018-11-26T07:35:22.651Z,27.73
2018-11-26T07:37:48.648Z,25.40
2018-11-26T07:40:14.666Z,24.30
2018-11-26T07:42:40.654Z,27.33
2018-11-26T07:45:13.746Z,27.43
2018-11-26T07:47:39.735Z,25.30
2018-11-26T07:50:06.451Z,23.67
2018-11-26T07:52:32.469Z,25.03
2018-11-26T07:54:58.474Z,22.13
2018-11-26T07:57:24.466Z,24.20
2018-11-26T07:59:50.470Z,19.63
2018-11-26T08:02:17.211Z,24.03
2018-11-26T08:04:43.946Z,21.50
2018-11-26T08:07:10.674Z,24.23
2018-11-26T08:09:36.693Z,23.17
2018-11-26T08:12:02.682Z,24.67
2018-11-26T08:14:28.672Z,25.87
2018-11-26T08:16:54.697Z,20.17
2018-11-26T08:19:21.402Z,23.27
2018-11-26T08:21:47.378Z,21.70
2018-11-26T08:24:13.362Z,21.83
2018-11-26T08:26:39.341Z,21.97
2018-11-26T08:29:05.340Z,24.43
2018-11-26T08:31:31.334Z,22.37
2018-11-26T08:33:58.061Z,23.80
2018-11-26T08:36:24.066Z,21.03
2018-11-26T08:38:50.090Z,23.00
2018-11-26T08:41:16.085Z,21.30
2018-11-26T08:43:42.105Z,19.47
2018-11-26T08:46:08.127Z,19.17
2018-11-26T08:48:34.117Z,22.03
2018-11-26T08:51:00.131Z,18.93
2018-11-26T08:53:26.102Z,18.50
2018-11-26T08:55:52.188Z,17.87
2018-11-26T08:58:18.182Z,20.47
2018-11-26T09:00:44.178Z,18.03
2018-11-26T09:03:10.201Z,18.53
2018-11-26T09:05:36.198Z,19.60
2018-11-26T09:08:02.919Z,21.80
2018-11-26T09:10:28.913Z,18.17
2018-11-26T09:12:54.902Z,19.90
2018-11-26T09:15:20.938Z,19.90
2018-11-26T09:17:46.924Z,20.20
2018-11-26T09:20:13.649Z,19.40
2018-11-26T09:22:39.817Z,19.77
2018-11-26T09:25:05.802Z,20.93
2018-11-26T09:27:31.794Z,20.00
2018-11-26T09:29:57.974Z,18.83
2018-11-26T09:32:24.685Z,19.30
2018-11-26T09:34:50.675Z,19.80
2018-11-26T09:37:24.222Z,19.70
2018-11-26T09:39:50.214Z,19.67
2018-11-26T09:42:16.207Z,20.60
2018-11-26T09:44:42.484Z,18.87
2018-11-26T09:47:08.762Z,19.07
2018-11-26T09:49:35.150Z,18.37
2018-11-26T09:52:02.344Z,18.47
2018-11-26T09:54:28.346Z,19.57
2018-11-26T09:56:55.098Z,19.83
2018-11-26T09:59:21.082Z,20.20
2018-11-26T10:01:47.051Z,16.93
2018-11-26T10:04:13.094Z,18.77
2018-11-26T10:06:46.114Z,20.63
2018-11-26T10:09:12.130Z,19.03
2018-11-26T10:11:38.111Z,16.63
2018-11-26T10:14:04.162Z,17.60
2018-11-26T10:16:30.256Z,19.87
2018-11-26T10:18:56.557Z,24.83
2018-11-26T10:21:22.533Z,19.70
2018-11-26T10:23:48.549Z,16.93
2018-11-26T10:26:14.538Z,16.50
2018-11-26T10:28:41.283Z,16.20
2018-11-26T10:31:08.044Z,17.10
2018-11-26T10:33:34.033Z,14.90
2018-11-26T10:36:00.036Z,16.27
2018-11-26T10:38:26.031Z,16.40
2018-11-26T10:40:52.022Z,16.37
2018-11-26T10:43:18.753Z,14.27
2018-11-26T10:45:45.484Z,16.77
2018-11-26T10:48:11.470Z,16.27
2018-11-26T10:50:37.489Z,14.63
2018-11-26T10:53:03.477Z,16.17
2018-11-26T10:55:29.452Z,14.80
2018-11-26T10:57:55.460Z,14.07
2018-11-26T11:00:28.518Z,14.47
2018-11-26T11:02:54.513Z,14.97
2018-11-26T11:05:20.514Z,14.10
2018-11-26T11:07:46.526Z,14.10
2018-11-26T11:10:12.500Z,12.77
2018-11-26T11:12:38.502Z,14.73
2018-11-26T11:15:04.497Z,15.00
2018-11-26T11:17:30.502Z,14.17
2018-11-26T11:19:56.504Z,13.80
2018-11-26T11:22:22.507Z,14.70
2018-11-26T11:24:49.325Z,14.10
2018-11-26T11:27:15.338Z,14.23
2018-11-26T11:29:41.343Z,13.30
2018-11-26T11:32:07.358Z,14.50
2018-11-26T11:34:33.355Z,14.27
2018-11-26T11:37:00.110Z,15.90
2018-11-26T11:39:26.228Z,14.00
2018-11-26T11:41:52.229Z,11.43
2018-11-26T11:44:18.331Z,13.33
2018-11-26T11:46:44.384Z,13.90
2018-11-26T11:49:10.475Z,15.20
2018-11-26T11:51:36.478Z,14.27
2018-11-26T11:54:02.478Z,13.57
2018-11-26T11:56:28.472Z,14.80
2018-11-26T11:58:54.462Z,14.73
2018-11-26T12:01:20.471Z,13.73
2018-11-26T12:03:46.469Z,15.70
2018-11-26T12:06:12.473Z,15.80
2018-11-26T12:08:39.229Z,14.10
2018-11-26T12:11:05.215Z,14.13
2018-11-26T12:13:31.247Z,15.20
2018-11-26T12:15:58.002Z,15.07
2018-11-26T12:18:24.783Z,14.23
2018-11-26T12:20:50.771Z,15.00
2018-11-26T12:23:17.512Z,15.47
2018-11-26T12:25:44.265Z,14.47
2018-11-26T12:28:10.279Z,15.70
2018-11-26T12:30:37.007Z,13.60
2018-11-26T12:33:03.010Z,16.40
2018-11-26T12:35:29.098Z,17.40
2018-11-26T12:37:56.005Z,15.07
2018-11-26T12:40:22.834Z,14.87
2018-11-26T12:42:48.948Z,17.77
2018-11-26T12:45:15.001Z,20.17
2018-11-26T12:47:41.867Z,19.10
2018-11-26T12:50:07.860Z,17.53
2018-11-26T12:52:33.862Z,16.70
2018-11-26T12:54:59.991Z,16.40
2018-11-26T12:57:26.009Z,15.73
2018-11-26T12:59:52.011Z,17.37
2018-11-26T13:02:18.027Z,15.23
2018-11-26T13:04:44.036Z,16.80
2018-11-26T13:07:10.040Z,17.60
2018-11-26T13:09:36.803Z,15.90
2018-11-26T13:12:04.288Z,15.70
2018-11-26T13:14:30.615Z,17.93
2018-11-26T13:16:57.610Z,16.60
2018-11-26T13:19:24.613Z,15.60
2018-11-26T13:21:51.560Z,15.20
2018-11-26T13:24:17.981Z,17.57
2018-11-26T13:26:44.427Z,16.27
2018-11-26T13:29:10.490Z,17.13
2018-11-26T13:31:36.519Z,16.67
2018-11-26T13:34:03.261Z,16.53
2018-11-26T13:36:30.002Z,20.33
2018-11-26T13:38:56.761Z,17.40
2018-11-26T13:41:22.761Z,15.07
2018-11-26T13:43:49.540Z,16.20
2018-11-26T13:46:15.523Z,17.03
2018-11-26T13:48:41.837Z,17.97
2018-11-26T13:51:08.156Z,18.83
2018-11-26T13:53:34.501Z,17.60
2018-11-26T13:56:00.907Z,19.30
2018-11-26T13:58:27.827Z,18.03
2018-11-26T14:00:54.281Z,18.43
2018-11-26T14:03:21.597Z,19.17
2018-11-26T14:05:47.899Z,18.40
2018-11-26T14:08:14.190Z,19.20
2018-11-26T14:10:40.744Z,19.00
2018-11-26T14:13:07.754Z,17.00
2018-11-26T14:15:33.930Z,17.43
2018-11-26T14:18:00.039Z,17.50
2018-11-26T14:20:26.275Z,17.17
2018-11-26T14:22:52.083Z,16.93
2018-11-26T14:25:18.109Z,19.10
2018-11-26T14:27:44.133Z,19.00
2018-11-26T14:30:10.127Z,16.63
2018-11-26T14:32:36.132Z,16.37
2018-11-26T14:35:02.909Z,17.10
2018-11-26T14:37:28.930Z,18.40
2018-11-26T14:39:55.020Z,19.00
2018-11-26T14:42:21.116Z,19.30
2018-11-26T14:44:47.172Z,20.07
2018-11-26T14:47:13.996Z,18.93
2018-11-26T14:49:40.075Z,18.30
2018-11-26T14:52:06.362Z,18.57
2018-11-26T14:54:32.458Z,15.63
2018-11-26T14:56:58.498Z,19.17
2018-11-26T14:59:24.895Z,17.47
2018-11-26T15:01:51.233Z,15.10
2018-11-26T15:04:17.545Z,17.37
2018-11-26T15:06:43.735Z,17.93
2018-11-26T15:09:10.387Z,16.87
2018-11-26T15:11:36.247Z,17.50
2018-11-26T15:14:02.493Z,15.90
2018-11-26T15:16:29.303Z,14.63
2018-11-26T15:18:55.561Z,15.70
2018-11-26T15:21:21.703Z,15.87
2018-11-26T15:23:47.864Z,15.90
2018-11-26T15:26:13.974Z,15.93
2018-11-26T15:28:40.751Z,16.60
2018-11-26T15:31:06.878Z,16.50
2018-11-26T15:33:33.061Z,16.00
2018-11-26T15:35:59.103Z,15.70
2018-11-26T15:38:25.912Z,16.83
2018-11-26T15:40:51.994Z,16.70
2018-11-26T15:43:18.155Z,17.17
2018-11-26T15:45:44.206Z,16.90
2018-11-26T15:48:10.992Z,16.17
2018-11-26T15:50:37.031Z,17.00
2018-11-26T15:53:03.307Z,19.27
2018-11-26T15:55:30.095Z,17.70
2018-11-26T15:57:56.143Z,17.90
2018-11-26T16:00:22.191Z,17.93
2018-11-26T16:02:48.422Z,18.10
2018-11-26T16:05:14.490Z,19.53
2018-11-26T16:07:40.523Z,20.60
2018-11-26T16:10:06.575Z,23.90
2018-11-26T16:12:32.582Z,23.00
2018-11-26T16:14:58.608Z,18.77
2018-11-26T16:17:24.631Z,16.83
2018-11-26T16:19:50.652Z,18.67
2018-11-26T16:22:16.644Z,19.60
2018-11-26T16:24:42.663Z,19.60
2018-11-26T16:27:08.666Z,20.03
2018-11-26T16:29:35.436Z,21.10
2018-11-26T16:32:01.439Z,21.10
2018-11-26T16:34:27.444Z,19.63
2018-11-26T16:36:53.611Z,22.10
2018-11-26T16:39:19.652Z,22.40
2018-11-26T16:41:45.689Z,23.77
2018-11-26T16:44:11.714Z,21.93
2018-11-26T16:46:37.719Z,21.30
2018-11-26T16:49:03.812Z,21.90
2018-11-26T16:51:30.619Z,22.10
2018-11-26T16:53:56.624Z,22.30
2018-11-26T16:56:22.639Z,20.93
2018-11-26T16:58:48.646Z,21.40
2018-11-26T17:01:14.801Z,22.27
2018-11-26T17:03:40.816Z,22.63
2018-11-26T17:06:06.834Z,21.50
2018-11-26T17:08:32.868Z,21.53
2018-11-26T17:10:58.947Z,21.70
2018-11-26T17:13:25.065Z,22.93
2018-11-26T17:15:51.825Z,22.87
2018-11-26T17:18:17.876Z,22.20
2018-11-26T17:20:43.878Z,22.57
2018-11-26T17:23:09.869Z,21.80
2018-11-26T17:25:35.890Z,24.03
2018-11-26T17:28:01.898Z,20.87
2018-11-26T17:30:27.895Z,21.67
2018-11-26T17:32:53.941Z,20.80
2018-11-26T17:35:19.955Z,22.63
2018-11-26T17:37:45.982Z,22.80
2018-11-26T17:40:12.009Z,22.00
2018-11-26T17:42:38.007Z,21.80
2018-11-26T17:45:03.987Z,22.87
2018-11-26T17:47:29.996Z,23.03
2018-11-26T17:49:55.983Z,23.00
2018-11-26T17:52:21.987Z,25.10
2018-11-26T17:54:48.010Z,22.77
2018-11-26T17:57:14.087Z,25.30
2018-11-26T17:59:40.194Z,25.37
2018-11-26T18:02:06.217Z,23.50
2018-11-26T18:04:32.258Z,26.43
2018-11-26T18:06:58.497Z,24.93
2018-11-26T18:09:24.560Z,25.47
2018-11-26T18:11:50.605Z,20.67
2018-11-26T18:14:16.617Z,24.33
2018-11-26T18:16:42.607Z,20.30
2018-11-26T18:19:08.610Z,23.80
2018-11-26T18:21:34.766Z,24.40
2018-11-26T18:24:01.502Z,23.37
2018-11-26T18:26:28.267Z,22.17
2018-11-26T18:28:54.281Z,22.97
2018-11-26T18:31:20.304Z,21.70
2018-11-26T18:33:46.342Z,23.80
2018-11-26T18:36:12.372Z,23.43
2018-11-26T18:38:38.361Z,22.57
2018-11-26T18:41:05.094Z,22.40
2018-11-26T18:43:31.091Z,24.27
2018-11-26T18:45:58.341Z,23.20
2018-11-26T18:48:25.385Z,22.37
2018-11-26T18:50:51.514Z,26.27
2018-11-26T18:53:18.770Z,26.83
2018-11-26T18:55:44.903Z,24.30
2018-11-26T18:58:11.071Z,24.20
2018-11-26T19:00:37.871Z,23.30
2018-11-26T19:03:04.377Z,25.30
2018-11-26T19:05:30.413Z,24.20
2018-11-26T19:07:56.923Z,23.03
2018-11-26T19:10:23.112Z,25.27
2018-11-26T19:12:49.318Z,22.90
2018-11-26T19:15:15.351Z,24.13
2018-11-26T19:17:41.495Z,23.67
2018-11-26T19:20:08.233Z,24.30
2018-11-26T19:22:34.243Z,23.20
2018-11-26T19:25:00.247Z,28.40
2018-11-26T19:27:26.251Z,23.90
2018-11-26T19:29:52.312Z,26.67
2018-11-26T19:32:18.421Z,27.03
2018-11-26T19:34:45.209Z,27.00
2018-11-26T19:37:12.095Z,27.70
2018-11-26T19:39:42.392Z,26.33
2018-11-26T19:42:08.462Z,28.13
2018-11-26T19:44:34.558Z,26.27
2018-11-26T19:47:00.554Z,24.47
2018-11-26T19:49:26.687Z,27.07
2018-11-26T19:51:52.703Z,25.83
2018-11-26T19:54:18.736Z,23.73
2018-11-26T19:56:44.927Z,24.37
2018-11-26T19:59:10.979Z,25.97
2018-11-26T20:01:37.109Z,25.03
2018-11-26T20:04:03.915Z,25.73
2018-11-26T20:06:30.141Z,24.93
2018-11-26T20:08:56.200Z,25.17
2018-11-26T20:11:22.259Z,25.40
2018-11-26T20:13:48.307Z,27.23
2018-11-26T20:16:14.846Z,23.87
2018-11-26T20:18:41.068Z,24.97
2018-11-26T20:21:07.395Z,23.00
2018-11-26T20:23:33.728Z,28.47
2018-11-26T20:26:00.357Z,23.23
2018-11-26T20:28:26.770Z,23.30
2018-11-26T20:30:52.948Z,20.80
2018-11-26T20:33:19.103Z,22.07
2018-11-26T20:35:45.326Z,22.50
2018-11-26T20:38:12.482Z,20.73
2018-11-26T20:40:38.575Z,22.87
2018-11-26T20:43:05.022Z,21.47
2018-11-26T20:45:31.221Z,22.80
2018-11-26T20:47:58.226Z,22.10
2018-11-26T20:50:25.712Z,23.40
2018-11-26T20:52:51.854Z,21.03
2018-11-26T20:55:17.945Z,19.70
2018-11-26T20:57:44.128Z,20.50
2018-11-26T21:00:10.492Z,20.03
2018-11-26T21:02:36.583Z,20.47
2018-11-26T21:05:02.695Z,21.00
2018-11-26T21:07:28.989Z,22.53
2018-11-26T21:09:55.168Z,21.37
2018-11-26T21:12:21.215Z,18.83
2018-11-26T21:14:48.040Z,22.93
2018-11-26T21:17:14.051Z,20.13
2018-11-26T21:19:40.082Z,20.73
2018-11-26T21:22:06.078Z,21.80
2018-11-26T21:24:32.082Z,20.70
2018-11-26T21:26:58.099Z,18.23
2018-11-26T21:29:24.135Z,21.20
2018-11-26T21:31:50.127Z,19.87
2018-11-26T21:34:16.851Z,17.73
2018-11-26T21:36:42.908Z,18.30
2018-11-26T21:39:09.960Z,19.30
2018-11-26T21:41:35.934Z,18.63
2018-11-26T21:44:01.926Z,18.70
2018-11-26T21:46:27.953Z,20.83
2018-11-26T21:48:53.966Z,17.80
2018-11-26T21:51:19.971Z,19.23
2018-11-26T21:53:45.951Z,19.03
2018-11-26T21:56:11.967Z,18.30
2018-11-26T21:58:37.984Z,18.40
2018-11-26T22:01:03.994Z,18.67
2018-11-26T22:03:30.695Z,16.20
2018-11-26T22:05:56.024Z,17.53
2018-11-26T22:08:22.043Z,18.80
2018-11-26T22:10:48.322Z,18.30
2018-11-26T22:13:14.329Z,21.25
2018-11-26T22:15:40.325Z,20.37
2018-11-26T22:18:06.315Z,18.80
2018-11-26T22:20:32.323Z,20.03
2018-11-26T22:22:58.322Z,21.58
2018-11-26T22:25:24.346Z,20.83
2018-11-26T22:27:51.438Z,19.67
2018-11-26T22:30:18.183Z,20.37
2018-11-26T22:32:44.933Z,20.37
2018-11-26T22:35:11.681Z,19.10
2018-11-26T22:37:37.664Z,21.47
2018-11-26T22:40:03.669Z,17.67
2018-11-26T22:42:29.674Z,19.60
2018-11-26T22:44:55.723Z,19.37
2018-11-26T22:47:21.714Z,18.50
2018-11-26T22:49:47.728Z,19.33
2018-11-26T22:52:14.459Z,18.60
2018-11-26T22:54:40.478Z,18.40
2018-11-26T22:57:07.283Z,21.03
2018-11-26T22:59:33.287Z,19.80
2018-11-26T23:01:59.312Z,18.77
2018-11-26T23:04:25.323Z,18.43
2018-11-26T23:06:51.310Z,17.17
2018-11-26T23:09:18.054Z,17.83
2018-11-26T23:11:44.803Z,18.67
2018-11-26T23:14:12.167Z,16.27
2018-11-26T23:16:38.164Z,17.87
2018-11-26T23:19:04.941Z,18.37
2018-11-26T23:21:30.979Z,18.40
2018-11-26T23:23:57.012Z,17.75
2018-11-26T23:26:23.035Z,18.67
2018-11-26T23:28:49.028Z,17.60
2018-11-26T23:31:15.048Z,16.50
2018-11-26T23:33:41.028Z,17.30
2018-11-26T23:36:07.064Z,15.70
2018-11-26T23:38:33.062Z,18.17
2018-11-26T23:40:59.113Z,20.13
2018-11-26T23:43:25.858Z,17.53
2018-11-26T23:45:51.848Z,18.10
2018-11-26T23:48:17.864Z,17.70
2018-11-26T23:50:43.871Z,16.83
2018-11-26T23:53:09.875Z,18.47
2018-11-26T23:55:35.887Z,16.20
2018-11-26T23:58:01.883Z,18.00
